Sosnovo-Ozerskoe, Russia
Current Conditions -  °F | °C
As of 9:08 AM on Tuesday 27 Jan 2015 (Local Time) from UIAA Reporting Station
Clear Clear  
Wind Chill: -19°   Ceiling: Unl
Heat Index: -8°   Visibility: 6mi
Dew Point: -13°   Wind: 4mph
Humidity: 77%   Direction: NA
Pressure: 30.45"   Gusts: NA
Location:  52.53°N, 111.55°E
Report Text: UIAA 270108Z VRB02MPS 9999 SKC M22/M25 Q1031 NOSIG RMK QFE71429CLRD70
Loading
Personal Weather Stations






























Interactive Weather Map New forecast layout! Learn more

10-Day Weather Forecast

Advertisements
Track Severe Weather on mobile